Time;durP1;ratioP1;P1;durP2;ratioP2;P2;SDS_P1;SDS_P2;PMS_P1;PMS_P2;Temp;Humidity;BMP_temperature;BMP_pressure;BME280_temperature;BME280_humidity;BME280_pressure;Samples;Min_cycle;Max_cycle;Signal;HPM_P1;HPM_P2
2023/06/26 00:01:22;;;;;;;8.38;7.55;;;;;;;23.07;64.69;101133.53;5008526;28;20064;-77
2023/06/26 00:03:48;;;;;;;7.85;7.15;;;;;;;23.06;64.69;101133.72;5009450;28;20022;-78
2023/06/26 00:06:14;;;;;;;7.97;7.18;;;;;;;23.01;65.05;101134.28;5009332;28;20037;-78
2023/06/26 00:08:40;;;;;;;8.93;8.02;;;;;;;22.96;65.09;101138.56;5008649;28;20442;-78
2023/06/26 00:11:06;;;;;;;8.63;7.80;;;;;;;22.89;65.65;101133.13;5009928;28;20025;-78
2023/06/26 00:13:32;;;;;;;8.63;7.75;;;;;;;22.85;65.07;101131.81;5009136;28;20054;-78
2023/06/26 00:15:57;;;;;;;9.38;8.00;;;;;;;22.83;65.48;101127.66;5004110;28;20088;-78
2023/06/26 00:18:23;;;;;;;8.75;7.43;;;;;;;22.79;65.73;101122.59;5002477;28;20030;-78
2023/06/26 00:20:49;;;;;;;9.43;7.40;;;;;;;22.73;65.83;101119.84;5009562;28;20498;-78
2023/06/26 00:23:17;;;;;;;8.50;7.55;;;;;;;22.70;66.20;101123.72;5008854;28;20456;-77
2023/06/26 00:25:43;;;;;;;8.15;7.43;;;;;;;22.71;66.11;101124.56;5009758;28;20049;-78
2023/06/26 00:28:09;;;;;;;9.02;7.82;;;;;;;22.66;66.58;101122.44;5008014;28;20371;-77
2023/06/26 00:30:34;;;;;;;8.43;7.35;;;;;;;22.62;67.13;101125.69;5009467;28;20037;-78
2023/06/26 00:32:59;;;;;;;8.18;7.43;;;;;;;22.55;67.22;101124.75;5001378;28;20026;-76
2023/06/26 00:35:26;;;;;;;8.90;7.63;;;;;;;22.47;67.41;101126.53;4990105;28;20030;-78
2023/06/26 00:37:51;;;;;;;8.27;7.47;;;;;;;22.45;67.58;101125.88;5004967;28;20030;-77
2023/06/26 00:40:20;;;;;;;8.80;7.90;;;;;;;22.40;67.94;101124.75;4990777;28;20030;-77
2023/06/26 00:42:45;;;;;;;8.80;8.00;;;;;;;22.35;68.27;101125.28;4990738;28;20018;-78
2023/06/26 00:45:11;;;;;;;8.25;7.47;;;;;;;22.33;68.22;101121.97;4999509;28;20026;-78
2023/06/26 00:47:37;;;;;;;8.65;7.88;;;;;;;22.27;68.69;101128.06;5009100;28;20022;-78
2023/06/26 00:50:04;;;;;;;9.77;8.52;;;;;;;22.24;68.99;101135.63;5018720;28;20053;-78
2023/06/26 00:52:30;;;;;;;8.98;8.00;;;;;;;22.23;69.15;101142.84;5009202;28;20064;-78
2023/06/26 00:54:56;;;;;;;8.68;7.97;;;;;;;22.18;69.22;101138.03;5009869;28;20057;-78
2023/06/26 00:57:21;;;;;;;9.57;8.52;;;;;;;22.17;68.92;101132.84;5008608;28;20062;-78
2023/06/26 00:59:48;;;;;;;10.30;8.60;;;;;;;22.13;69.38;101140.44;5008963;28;20486;-78
2023/06/26 01:02:17;;;;;;;8.98;8.05;;;;;;;22.10;69.12;101135.44;5008986;28;20064;-78
2023/06/26 01:04:46;;;;;;;9.77;8.77;;;;;;;22.13;69.36;101136.91;5008374;28;20373;-79
2023/06/26 01:07:13;;;;;;;9.82;8.50;;;;;;;22.06;69.23;101139.50;5013454;28;20034;-78
2023/06/26 01:09:38;;;;;;;9.75;8.68;;;;;;;22.02;68.78;101142.69;5006144;28;20034;-78
2023/06/26 01:12:04;;;;;;;8.93;8.02;;;;;;;22.00;68.69;101147.38;5008369;28;20026;-78
2023/06/26 01:14:43;;;;;;;9.00;8.10;;;;;;;21.97;68.67;101145.88;5008458;28;20029;-78
2023/06/26 01:17:14;;;;;;;8.90;8.00;;;;;;;21.94;68.62;101148.09;5023872;28;20056;-78
2023/06/26 01:19:40;;;;;;;9.20;7.85;;;;;;;21.94;68.69;101150.78;5004696;28;20055;-78
2023/06/26 01:22:14;;;;;;;9.10;7.78;;;;;;;21.87;68.35;101154.19;5012503;28;20474;-78
2023/06/26 01:24:45;;;;;;;9.82;7.93;;;;;;;21.82;68.77;101151.22;5011846;28;20033;-78
2023/06/26 01:27:12;;;;;;;9.27;7.68;;;;;;;21.82;68.35;101161.94;5011880;28;20057;-78
2023/06/26 01:29:38;;;;;;;8.32;7.50;;;;;;;21.80;68.55;101163.94;5012407;28;20029;-78
2023/06/26 01:32:05;;;;;;;7.68;6.90;;;;;;;21.75;68.62;101163.66;5011442;28;20095;-77
2023/06/26 01:34:30;;;;;;;8.38;6.93;;;;;;;21.69;69.04;101160.88;5011346;28;20045;-77
2023/06/26 01:36:57;;;;;;;7.88;7.07;;;;;;;21.64;69.09;101157.88;5010768;28;20026;-77
2023/06/26 01:39:22;;;;;;;7.78;6.97;;;;;;;21.64;69.06;101153.38;5012276;28;20092;-77
2023/06/26 01:41:48;;;;;;;7.45;6.65;;;;;;;21.58;69.16;101162.09;5001282;28;20429;-78
2023/06/26 01:44:28;;;;;;;7.22;6.55;;;;;;;21.58;69.22;101162.09;5011713;28;20029;-77
2023/06/26 01:47:04;;;;;;;10.95;6.40;;;;;;;21.50;68.10;101168.34;5010980;28;20037;-77
2023/06/26 01:49:35;;;;;;;7.22;6.22;;;;;;;21.48;68.13;101175.72;5012813;28;20502;-77
2023/06/26 01:52:25;;;;;;;6.78;5.75;;;;;;;21.48;67.58;101190.94;5013120;28;20049;-77
2023/06/26 01:55:05;;;;;;;7.63;5.63;;;;;;;21.43;68.46;101188.78;5012151;28;20557;-78
2023/06/26 01:57:32;;;;;;;7.55;6.25;;;;;;;21.36;68.03;101192.34;4993240;28;20022;-78
2023/06/26 01:59:58;;;;;;;8.85;5.90;;;;;;;21.31;68.74;101200.06;5000004;28;20030;-78
2023/06/26 02:02:25;;;;;;;7.00;5.55;;;;;;;21.29;68.74;101199.41;4992358;28;20022;-78
2023/06/26 02:04:51;;;;;;;7.45;5.95;;;;;;;21.24;68.70;101206.13;4993094;28;20029;-79
2023/06/26 02:07:16;;;;;;;8.82;6.30;;;;;;;21.17;68.86;101199.75;4992981;28;20030;-78
2023/06/26 02:09:42;;;;;;;8.85;5.88;;;;;;;21.13;68.99;101195.75;4991680;28;20100;-78
2023/06/26 02:12:08;;;;;;;9.30;5.40;;;;;;;21.08;68.66;101200.81;5010505;28;20029;-78
2023/06/26 02:14:34;;;;;;;10.05;5.72;;;;;;;21.01;69.65;101194.47;5011424;28;20567;-78
2023/06/26 02:17:00;;;;;;;7.88;5.45;;;;;;;20.94;69.59;101193.50;4997950;28;20045;-78
2023/06/26 02:19:27;;;;;;;6.45;5.30;;;;;;;20.87;70.25;101197.88;5009527;28;20030;-78
2023/06/26 02:21:53;;;;;;;8.98;5.63;;;;;;;20.84;70.21;101193.72;5010101;28;20029;-78
2023/06/26 02:24:45;;;;;;;10.38;6.10;;;;;;;20.80;70.02;101191.53;5010222;28;20026;-78
2023/06/26 02:27:10;;;;;;;10.27;5.53;;;;;;;20.70;70.75;101198.91;4992118;28;20053;-78
2023/06/26 02:29:44;;;;;;;6.32;5.20;;;;;;;20.71;70.43;101200.56;5000748;28;20026;-78
2023/06/26 02:32:09;;;;;;;6.72;5.00;;;;;;;20.68;70.67;101203.59;5011678;28;20042;-78
2023/06/26 02:34:35;;;;;;;8.95;4.93;;;;;;;20.64;69.66;101203.94;5010896;28;20055;-78
2023/06/26 02:37:01;;;;;;;7.57;5.20;;;;;;;20.57;69.76;101202.94;5025959;28;20698;-78
2023/06/26 02:39:44;;;;;;;8.43;4.90;;;;;;;20.55;69.32;101204.13;5011401;28;20029;-78
2023/06/26 02:42:09;;;;;;;7.47;5.25;;;;;;;20.48;69.94;101208.50;5025134;28;20099;-78
2023/06/26 02:44:35;;;;;;;5.68;4.50;;;;;;;20.45;69.93;101208.84;5022797;28;20418;-78
2023/06/26 02:47:01;;;;;;;7.50;4.65;;;;;;;20.40;70.22;101201.28;5011600;28;20040;-78
2023/06/26 02:49:26;;;;;;;7.55;4.85;;;;;;;20.39;69.84;101207.59;5012050;28;20160;-78
2023/06/26 02:52:28;;;;;;;7.28;5.18;;;;;;;20.41;69.35;101223.50;5011011;28;20032;-77
2023/06/26 02:54:53;;;;;;;5.95;4.75;;;;;;;20.23;70.66;101223.66;4989971;28;20026;-77
2023/06/26 02:57:19;;;;;;;8.18;5.03;;;;;;;20.23;70.98;101226.34;5006845;28;20045;-78
2023/06/26 02:59:47;;;;;;;6.60;4.72;;;;;;;20.13;71.30;101226.50;5012377;28;20030;-77
2023/06/26 03:02:13;;;;;;;8.27;5.38;;;;;;;20.15;71.98;101234.34;5015536;28;20491;-78
2023/06/26 03:04:39;;;;;;;11.88;5.40;;;;;;;20.08;72.32;101244.88;5004268;28;20026;-77
2023/06/26 03:07:05;;;;;;;9.10;5.10;;;;;;;20.06;72.72;101238.03;5013220;28;20513;-77
2023/06/26 03:09:39;;;;;;;9.85;5.10;;;;;;;20.03;73.37;101237.34;5011152;28;20177;-77
2023/06/26 03:12:04;;;;;;;7.07;4.90;;;;;;;19.97;74.25;101237.16;5025578;28;20080;-77
2023/06/26 03:14:31;;;;;;;13.90;5.22;;;;;;;19.91;74.51;101237.81;5012329;28;20478;-78
2023/06/26 03:16:57;;;;;;;9.43;5.20;;;;;;;19.84;75.51;101242.16;5012236;28;20042;-77
2023/06/26 03:19:26;;;;;;;7.80;5.05;;;;;;;19.82;76.09;101249.50;4999915;28;20101;-77
2023/06/26 03:21:52;;;;;;;10.57;5.35;;;;;;;19.81;76.38;101237.13;5010372;28;20438;-77
2023/06/26 03:24:17;;;;;;;11.40;5.68;;;;;;;19.81;76.83;101237.97;5011202;28;20084;-77
2023/06/26 03:26:43;;;;;;;10.00;5.03;;;;;;;19.76;77.49;101244.81;5009819;28;20088;-77
2023/06/26 03:29:08;;;;;;;12.00;5.63;;;;;;;19.75;77.53;101238.63;5010650;28;20036;-78
2023/06/26 03:31:33;;;;;;;10.35;5.22;;;;;;;19.73;77.93;101239.81;5010073;28;20048;-78
2023/06/26 03:33:59;;;;;;;17.17;5.10;;;;;;;19.72;78.17;101241.63;5010130;28;20057;-77
2023/06/26 03:36:24;;;;;;;12.50;5.78;;;;;;;19.69;78.18;101239.28;5001366;28;20025;-78
2023/06/26 03:38:49;;;;;;;11.30;5.47;;;;;;;19.65;78.51;101235.28;5011142;28;20025;-77
2023/06/26 03:41:16;;;;;;;14.32;5.72;;;;;;;19.61;79.39;101249.94;5009910;28;20032;-78
2023/06/26 03:43:41;;;;;;;12.50;5.93;;;;;;;19.58;79.91;101247.56;5010048;28;20054;-77
2023/06/26 03:46:09;;;;;;;11.18;5.53;;;;;;;19.56;80.27;101246.91;5011190;28;20057;-76
2023/06/26 03:48:35;;;;;;;10.88;5.25;;;;;;;19.54;80.62;101240.91;5011113;28;20112;-76
2023/06/26 03:51:02;;;;;;;13.20;5.97;;;;;;;19.56;81.13;101245.06;5025682;28;20123;-77
2023/06/26 03:53:27;;;;;;;14.48;5.90;;;;;;;19.53;81.92;101256.06;5017828;28;20549;-77
2023/06/26 03:55:53;;;;;;;11.35;5.63;;;;;;;19.53;82.18;101263.25;5025793;28;20030;-77
2023/06/26 03:58:19;;;;;;;10.52;5.75;;;;;;;19.48;82.68;101260.19;5009721;28;20022;-77
2023/06/26 04:00:46;;;;;;;14.32;5.72;;;;;;;19.47;83.14;101261.19;5009710;28;20026;-77
2023/06/26 04:03:11;;;;;;;10.68;5.28;;;;;;;19.49;82.93;101264.53;5009178;28;20080;-77
2023/06/26 04:05:37;;;;;;;13.63;6.25;;;;;;;19.43;84.15;101271.34;5010842;28;20447;-76
2023/06/26 04:08:03;;;;;;;13.90;7.03;;;;;;;19.55;84.29;101275.44;5007726;28;20096;-77
2023/06/26 04:10:29;;;;;;;13.88;6.40;;;;;;;19.80;83.36;101280.88;4991709;28;20030;-77
2023/06/26 04:12:54;;;;;;;14.82;6.38;;;;;;;20.08;82.24;101281.44;4996285;28;20488;-77
2023/06/26 04:15:22;;;;;;;15.02;6.43;;;;;;;20.42;80.67;101290.19;5009222;28;20554;-77
2023/06/26 04:17:48;;;;;;;12.85;6.22;;;;;;;20.77;79.17;101293.50;5009684;28;20054;-79
2023/06/26 04:20:19;;;;;;;12.80;6.28;;;;;;;20.85;78.78;101290.84;5010254;28;20100;-77
2023/06/26 04:22:45;;;;;;;13.87;6.40;;;;;;;20.59;79.73;101283.84;5008744;28;20705;-77
2023/06/26 04:25:11;;;;;;;13.32;6.15;;;;;;;20.49;80.31;101287.69;5006151;28;20029;-77
2023/06/26 04:27:42;;;;;;;14.88;6.55;;;;;;;20.37;81.44;101287.13;5009497;28;20537;-77
2023/06/26 04:30:09;;;;;;;13.82;6.20;;;;;;;20.32;82.10;101284.13;5008191;28;20036;-77
2023/06/26 04:32:35;;;;;;;14.30;6.43;;;;;;;20.25;82.86;101299.16;5008201;28;20026;-77
2023/06/26 04:35:00;;;;;;;16.60;6.57;;;;;;;20.15;83.92;101293.97;5008036;28;20046;-77
2023/06/26 04:37:26;;;;;;;19.30;6.85;;;;;;;20.11;84.46;101302.47;5007150;28;20018;-77
2023/06/26 04:39:51;;;;;;;19.70;7.05;;;;;;;20.09;84.98;101309.81;5009654;28;20087;-76
2023/06/26 04:42:17;;;;;;;14.23;6.18;;;;;;;20.06;85.27;101302.16;5006397;28;20055;-77
2023/06/26 04:44:43;;;;;;;12.52;6.10;;;;;;;19.98;85.85;101308.28;5008325;28;20025;-77
2023/06/26 04:47:09;;;;;;;15.73;7.18;;;;;;;19.96;86.29;101311.13;5009588;28;20037;-74
2023/06/26 04:49:35;;;;;;;18.02;7.35;;;;;;;19.94;86.23;101317.63;5009395;28;20029;-75
2023/06/26 04:52:00;;;;;;;14.35;6.63;;;;;;;19.97;86.07;101318.13;5024189;28;20552;-77
2023/06/26 04:54:27;;;;;;;15.25;6.68;;;;;;;19.96;86.20;101319.13;5009020;28;20390;-78
2023/06/26 04:56:53;;;;;;;16.73;6.88;;;;;;;19.86;86.63;101323.78;5012031;28;20034;-78
2023/06/26 04:59:18;;;;;;;19.27;6.88;;;;;;;19.85;86.83;101324.78;5013404;28;20036;-79
2023/06/26 05:01:48;;;;;;;16.10;6.43;;;;;;;19.86;87.06;101329.13;5003783;28;20026;-79
2023/06/26 05:04:17;;;;;;;17.83;6.72;;;;;;;19.87;86.92;101322.78;5006014;28;20055;-79
2023/06/26 05:06:47;;;;;;;20.77;6.30;;;;;;;19.91;86.59;101329.47;5012536;28;20056;-77
2023/06/26 05:09:12;;;;;;;17.15;6.78;;;;;;;19.86;86.82;101336.28;5011697;28;20074;-78
2023/06/26 05:11:37;;;;;;;16.92;6.65;;;;;;;19.81;87.04;101344.78;5013059;28;20026;-78
2023/06/26 05:14:09;;;;;;;16.17;6.13;;;;;;;19.79;87.33;101345.97;5013017;28;20040;-79
2023/06/26 05:16:35;;;;;;;15.38;6.10;;;;;;;19.81;87.01;101343.97;5011539;28;20036;-78
2023/06/26 05:19:00;;;;;;;18.38;6.60;;;;;;;19.78;86.64;101345.13;5010839;28;20029;-80
2023/06/26 05:21:26;;;;;;;15.93;5.88;;;;;;;19.76;87.24;101346.28;5013053;28;20030;-78
2023/06/26 05:23:55;;;;;;;19.08;5.47;;;;;;;19.76;86.42;101344.44;5012621;28;20056;-77
2023/06/26 05:26:21;;;;;;;17.52;6.32;;;;;;;19.73;86.32;101347.44;5004436;28;20109;-77
2023/06/26 05:28:58;;;;;;;15.57;6.43;;;;;;;19.73;86.46;101358.13;4999290;28;20145;-76
2023/06/26 05:31:24;;;;;;;16.17;6.03;;;;;;;19.84;86.42;101355.16;4967388;28;104181;-77
2023/06/26 05:33:53;;;;;;;17.75;5.72;;;;;;;19.86;84.79;101358.50;4970981;28;20047;-79
2023/06/26 05:36:21;;;;;;;21.08;6.03;;;;;;;19.88;85.11;101361.00;4982347;28;20061;-79
2023/06/26 05:38:48;;;;;;;18.50;5.75;;;;;;;19.83;84.20;101364.16;4998335;28;20058;-77
2023/06/26 05:41:14;;;;;;;18.63;5.90;;;;;;;19.80;83.74;101369.00;4990028;28;20057;-79
2023/06/26 05:43:39;;;;;;;15.98;5.30;;;;;;;19.79;84.58;101368.16;4973637;28;20445;-78
2023/06/26 05:46:05;;;;;;;14.57;5.40;;;;;;;19.84;84.67;101375.69;4972740;28;20170;-78
2023/06/26 05:48:31;;;;;;;18.42;6.00;;;;;;;19.84;84.29;101371.19;4973254;28;20105;-78
2023/06/26 05:50:59;;;;;;;19.50;6.10;;;;;;;19.83;84.34;101376.69;4957787;28;20526;-78
2023/06/26 05:53:37;;;;;;;16.08;5.40;;;;;;;19.85;84.30;101382.69;4969281;28;20396;-74
2023/06/26 05:56:03;;;;;;;14.93;5.30;;;;;;;19.88;83.01;101383.22;4956670;28;20031;-74
2023/06/26 05:58:28;;;;;;;14.13;4.80;;;;;;;19.88;82.62;101380.53;4971553;28;20041;-74
2023/06/26 06:00:54;;;;;;;12.13;4.70;;;;;;;19.85;82.43;101393.38;4963092;28;20058;-73
2023/06/26 06:03:19;;;;;;;17.13;5.35;;;;;;;19.90;82.05;101391.91;4982516;28;20033;-78
2023/06/26 06:05:45;;;;;;;15.43;4.68;;;;;;;19.92;80.97;101397.91;4975239;28;20030;-77
2023/06/26 06:08:10;;;;;;;12.60;4.40;;;;;;;19.98;80.40;101402.59;4989617;28;20517;-75
2023/06/26 06:10:36;;;;;;;13.80;4.13;;;;;;;20.05;81.03;101402.00;4982413;28;20042;-74
2023/06/26 06:13:01;;;;;;;17.67;5.07;;;;;;;20.08;79.34;101404.34;4991929;28;20034;-79
2023/06/26 06:15:27;;;;;;;14.82;4.45;;;;;;;20.08;79.05;101404.34;4976010;28;20026;-76
2023/06/26 06:17:53;;;;;;;16.27;4.40;;;;;;;20.13;79.38;101407.34;4971978;28;20454;-76
2023/06/26 06:20:21;;;;;;;10.95;4.25;;;;;;;20.15;79.13;101416.03;4973643;28;20054;-77
2023/06/26 06:22:48;;;;;;;11.75;4.07;;;;;;;20.21;78.96;101415.41;4973918;28;20035;-75
2023/06/26 06:25:15;;;;;;;13.40;4.15;;;;;;;20.23;77.98;101419.56;4981105;28;20060;-77
2023/06/26 06:27:44;;;;;;;10.40;3.67;;;;;;;20.29;78.24;101420.75;4980149;28;20034;-77
2023/06/26 06:30:11;;;;;;;13.20;4.00;;;;;;;20.32;77.75;101428.44;4975098;28;20081;-78
2023/06/26 06:32:36;;;;;;;11.43;3.75;;;;;;;20.34;76.92;101421.09;4984913;28;20038;-75
2023/06/26 06:35:08;;;;;;;10.63;3.70;;;;;;;20.35;76.28;101418.28;4974752;28;20190;-77
2023/06/26 06:37:34;;;;;;;10.63;3.78;;;;;;;20.39;76.06;101424.13;4988005;28;20030;-76
2023/06/26 06:39:59;;;;;;;13.68;3.70;;;;;;;20.42;75.49;101429.19;4992612;28;20025;-76
2023/06/26 06:42:24;;;;;;;12.43;3.47;;;;;;;20.45;76.60;101439.56;4980436;28;20636;-77
2023/06/26 06:44:50;;;;;;;11.13;3.75;;;;;;;20.54;75.99;101443.09;4978375;28;20023;-79
2023/06/26 06:47:15;;;;;;;8.77;3.25;;;;;;;20.57;75.10;101450.78;4981231;28;20650;-80
2023/06/26 06:49:40;;;;;;;8.85;3.60;;;;;;;20.59;74.92;101452.28;4970742;28;20499;-75
2023/06/26 06:52:06;;;;;;;9.43;3.15;;;;;;;20.65;74.94;101451.63;4980411;28;20026;-81
2023/06/26 06:54:50;;;;;;;12.00;3.38;;;;;;;20.68;75.36;101449.63;4998506;28;20125;-81
2023/06/26 06:57:15;;;;;;;13.00;4.72;;;;;;;20.71;74.72;101451.97;4975023;28;20121;-80
2023/06/26 06:59:43;;;;;;;10.43;3.83;;;;;;;20.77;74.53;101464.69;4972863;28;20606;-80
2023/06/26 07:02:09;;;;;;;7.63;3.50;;;;;;;20.83;74.15;101472.06;4972661;28;20066;-79
2023/06/26 07:04:34;;;;;;;9.25;3.60;;;;;;;20.96;74.54;101475.09;4986097;28;20137;-80
2023/06/26 07:07:01;;;;;;;7.70;3.30;;;;;;;21.12;73.73;101477.75;4956985;28;20412;-80
2023/06/26 07:09:27;;;;;;;9.43;3.35;;;;;;;21.29;73.22;101475.97;4952755;29;20376;-74
2023/06/26 07:11:52;;;;;;;9.50;3.10;;;;;;;21.63;71.56;101477.63;4952475;28;20074;-81
2023/06/26 07:14:18;;;;;;;7.85;3.05;;;;;;;21.68;69.92;101475.25;4954280;28;20042;-80
2023/06/26 07:16:43;;;;;;;7.70;3.10;;;;;;;21.77;70.46;101483.09;4972796;28;20678;-79
2023/06/26 07:19:09;;;;;;;11.25;3.10;;;;;;;21.74;70.32;101480.78;4971434;28;20109;-74
2023/06/26 07:21:34;;;;;;;6.57;2.83;;;;;;;21.74;69.72;101494.16;4971438;28;20027;-80
2023/06/26 07:24:00;;;;;;;10.18;2.83;;;;;;;21.75;69.84;101493.16;4955878;28;20399;-80
2023/06/26 07:26:25;;;;;;;8.45;2.72;;;;;;;21.72;69.16;101490.81;4951395;28;20021;-80
2023/06/26 07:28:50;;;;;;;10.15;3.28;;;;;;;21.69;69.21;101503.72;4953223;28;20042;-80
2023/06/26 07:31:20;;;;;;;12.00;3.08;;;;;;;21.76;68.93;101510.91;4954399;28;20573;-80
2023/06/26 07:33:45;;;;;;;8.80;2.55;;;;;;;22.01;67.97;101508.16;4990495;28;20057;-80
2023/06/26 07:36:11;;;;;;;12.38;3.00;;;;;;;22.11;68.95;101514.19;4988112;28;20113;-79
2023/06/26 07:38:40;;;;;;;10.05;3.13;;;;;;;22.29;67.66;101517.47;4980936;28;20102;-79
2023/06/26 07:41:05;;;;;;;6.40;2.70;;;;;;;22.68;67.68;101516.63;4973580;28;20050;-79
2023/06/26 07:43:31;;;;;;;8.18;2.90;;;;;;;22.77;65.71;101520.94;4976189;28;20060;-78
2023/06/26 07:45:58;;;;;;;11.18;2.97;;;;;;;22.79;63.20;101518.91;4971123;28;20268;-80
2023/06/26 07:48:24;;;;;;;11.07;2.55;;;;;;;22.79;64.14;101518.91;4961376;28;105396;-78
2023/06/26 07:50:49;;;;;;;7.38;2.03;;;;;;;22.87;62.71;101520.75;4973975;28;20030;-78
2023/06/26 07:53:15;;;;;;;5.32;2.10;;;;;;;23.01;62.24;101531.56;4972649;28;20542;-78
2023/06/26 07:55:40;;;;;;;4.43;1.90;;;;;;;23.41;61.29;101534.94;4968063;28;20403;-78
2023/06/26 07:58:07;;;;;;;6.32;2.08;;;;;;;23.72;60.58;101535.72;4975039;28;20030;-80
2023/06/26 08:00:33;;;;;;;4.35;2.10;;;;;;;23.75;56.95;101540.72;4970349;28;20078;-79
2023/06/26 08:02:59;;;;;;;5.78;2.03;;;;;;;23.87;56.58;101542.97;4969796;28;20446;-78
2023/06/26 08:05:25;;;;;;;6.45;2.13;;;;;;;23.95;56.17;101534.81;4980176;28;20022;-77
2023/06/26 08:07:50;;;;;;;6.75;1.95;;;;;;;23.81;54.00;101533.78;4970181;28;20031;-73
2023/06/26 08:10:20;;;;;;;5.03;1.60;;;;;;;23.57;53.54;101545.56;4977795;28;20023;-78
2023/06/26 08:12:46;;;;;;;5.10;1.65;;;;;;;23.34;53.16;101560.88;4969468;28;20551;-73
2023/06/26 08:15:12;;;;;;;4.57;1.60;;;;;;;23.36;53.14;101564.19;4955918;28;20038;-78
2023/06/26 08:17:38;;;;;;;3.30;1.38;;;;;;;23.25;52.77;101557.41;4971043;28;20022;-78
2023/06/26 08:20:05;;;;;;;3.92;1.42;;;;;;;23.23;52.10;101558.59;4980227;28;20038;-73
2023/06/26 08:22:30;;;;;;;5.78;2.08;;;;;;;23.29;52.01;101563.25;4971959;28;20019;-80
2023/06/26 08:24:56;;;;;;;4.03;1.30;;;;;;;23.56;51.11;101557.34;4973289;28;20029;-79
2023/06/26 08:27:21;;;;;;;3.85;1.50;;;;;;;24.00;51.26;101551.22;4980837;28;20034;-79
2023/06/26 08:29:47;;;;;;;3.78;1.42;;;;;;;24.27;51.33;101553.31;4970582;28;20081;-80
2023/06/26 08:32:12;;;;;;;3.80;1.40;;;;;;;24.51;50.57;101556.72;4972087;28;20547;-73
2023/06/26 08:34:37;;;;;;;4.18;1.67;;;;;;;24.73;50.32;101560.31;4968600;28;20516;-79
2023/06/26 08:37:03;;;;;;;6.95;1.40;;;;;;;25.02;50.44;101552.19;4967190;28;20027;-79
2023/06/26 08:39:28;;;;;;;3.58;1.30;;;;;;;25.11;48.73;101552.88;4975069;28;20026;-79
2023/06/26 08:41:55;;;;;;;7.10;1.70;;;;;;;25.13;49.54;101548.97;4972495;28;20031;-79
2023/06/26 08:44:24;;;;;;;7.53;1.58;;;;;;;25.25;49.52;101554.72;4972318;28;20387;-79
2023/06/26 08:46:51;;;;;;;5.03;1.65;;;;;;;25.06;49.06;101552.63;4974109;28;20054;-79
2023/06/26 08:49:27;;;;;;;7.85;1.60;;;;;;;25.29;48.72;101564.06;4972064;28;20109;-78
2023/06/26 08:52:00;;;;;;;3.85;1.50;;;;;;;25.12;49.08;101563.47;4998817;28;20057;-74
2023/06/26 08:54:30;;;;;;;4.95;1.60;;;;;;;25.10;49.75;101570.06;4974106;28;20507;-80
2023/06/26 08:56:57;;;;;;;8.77;1.60;;;;;;;25.49;47.41;101578.53;4973368;28;20034;-79
2023/06/26 08:59:23;;;;;;;3.97;1.30;;;;;;;25.90;46.45;101572.47;4975251;28;20026;-78
2023/06/26 09:01:50;;;;;;;3.97;1.48;;;;;;;26.29;45.73;101581.88;4977598;28;20034;-79
2023/06/26 09:04:16;;;;;;;4.78;1.27;;;;;;;26.36;42.74;101580.91;4987896;28;20479;-78
2023/06/26 09:06:44;;;;;;;4.05;1.33;;;;;;;26.39;42.84;101591.28;4988679;28;20033;-74
2023/06/26 09:09:10;;;;;;;6.38;1.50;;;;;;;26.12;42.25;101581.38;4984130;28;20033;-81
2023/06/26 09:11:36;;;;;;;5.55;1.30;;;;;;;26.38;42.90;101584.22;4976365;28;20030;-79
2023/06/26 09:14:05;;;;;;;5.20;1.25;;;;;;;26.70;43.30;101585.44;4967536;28;20033;-80
2023/06/26 09:16:31;;;;;;;3.90;1.10;;;;;;;27.06;41.84;101584.34;4980164;28;20023;-79
2023/06/26 09:18:56;;;;;;;5.80;1.58;;;;;;;26.96;41.92;101590.09;4970113;28;20026;-80
2023/06/26 09:21:24;;;;;;;4.78;1.30;;;;;;;27.16;41.76;101593.72;4975200;28;20030;-80
2023/06/26 09:23:50;;;;;;;5.63;1.50;;;;;;;27.16;41.08;101584.78;4974250;28;20027;-80
2023/06/26 09:26:16;;;;;;;7.07;1.60;;;;;;;27.36;41.06;101585.66;4984155;28;20506;-79
2023/06/26 09:28:43;;;;;;;4.53;1.30;;;;;;;27.11;40.02;101589.97;4970254;28;20034;-79
2023/06/26 09:31:09;;;;;;;3.03;1.10;;;;;;;27.09;39.20;101594.75;4962541;28;20038;-79
2023/06/26 09:33:37;;;;;;;3.45;1.40;;;;;;;27.01;40.64;101603.88;4961692;28;20055;-80
2023/06/26 09:36:18;;;;;;;2.65;1.30;;;;;;;27.03;40.34;101606.38;4966206;28;20035;-80
2023/06/26 09:38:44;;;;;;;5.40;1.40;;;;;;;26.86;40.00;101600.47;4980652;28;20061;-80
2023/06/26 09:41:09;;;;;;;4.82;1.30;;;;;;;26.74;40.54;101611.00;4970921;28;20446;-79
2023/06/26 09:43:45;;;;;;;3.38;1.00;;;;;;;27.00;41.02;101618.41;4965549;28;20027;-80
2023/06/26 09:46:18;;;;;;;2.35;1.13;;;;;;;26.71;38.51;101613.25;4970517;28;20438;-80
2023/06/26 09:48:43;;;;;;;8.15;1.20;;;;;;;26.65;38.46;101625.72;4970477;28;20027;-80
2023/06/26 09:51:10;;;;;;;2.33;1.00;;;;;;;26.75;38.55;101630.72;4990775;28;20430;-80
2023/06/26 09:53:36;;;;;;;3.15;1.30;;;;;;;26.46;38.26;101626.44;4983291;28;20034;-80
2023/06/26 09:56:06;;;;;;;3.85;1.02;;;;;;;26.21;39.88;101629.56;4973252;28;20509;-79
2023/06/26 09:58:32;;;;;;;3.90;1.08;;;;;;;26.21;39.76;101626.88;4982447;28;20376;-80
2023/06/26 10:00:58;;;;;;;5.05;1.50;;;;;;;25.98;39.50;101612.78;4981478;28;20058;-80
2023/06/26 10:03:24;;;;;;;3.25;1.15;;;;;;;26.09;39.98;101631.16;4973986;28;20027;-79
2023/06/26 10:05:50;;;;;;;3.72;1.20;;;;;;;26.20;36.98;101633.31;4978134;28;20023;-80
2023/06/26 10:08:17;;;;;;;5.00;1.40;;;;;;;26.30;37.91;101635.63;4993171;28;20041;-74
2023/06/26 10:10:44;;;;;;;5.40;1.17;;;;;;;26.51;37.35;101640.19;4992006;28;20109;-74
2023/06/26 10:13:22;;;;;;;3.67;0.90;;;;;;;26.54;37.67;101650.56;4991182;28;20064;-80
2023/06/26 10:15:50;;;;;;;2.65;1.02;;;;;;;26.48;35.52;101645.97;4985803;28;20027;-79
2023/06/26 10:18:18;;;;;;;7.68;1.10;;;;;;;26.45;36.31;101639.09;4974584;28;20076;-79
2023/06/26 10:20:47;;;;;;;2.88;1.10;;;;;;;26.45;37.41;101640.97;5005208;28;20022;-79
2023/06/26 10:23:14;;;;;;;3.55;1.20;;;;;;;26.68;36.70;101641.50;4980123;28;20530;-74
2023/06/26 10:25:42;;;;;;;2.60;1.10;;;;;;;26.62;35.63;101645.00;4988822;28;20429;-74
2023/06/26 10:28:12;;;;;;;3.67;1.10;;;;;;;26.68;36.89;101655.00;4991900;28;20119;-79
2023/06/26 10:30:39;;;;;;;2.03;1.10;;;;;;;26.91;37.37;101640.38;4989896;28;20451;-74
2023/06/26 10:33:05;;;;;;;6.28;1.00;;;;;;;26.76;36.13;101646.72;4981420;28;20028;-80
2023/06/26 10:35:31;;;;;;;2.83;0.98;;;;;;;26.71;37.57;101656.47;4984123;28;20524;-73
2023/06/26 10:38:06;;;;;;;7.35;1.33;;;;;;;26.30;37.18;101664.50;4990263;28;20034;-74
2023/06/26 10:40:49;;;;;;;5.47;1.35;;;;;;;26.01;38.25;101666.34;4988397;28;20053;-74
2023/06/26 10:43:18;;;;;;;3.50;1.00;;;;;;;25.63;37.11;101659.56;4981224;28;20180;-74
2023/06/26 10:45:54;;;;;;;5.13;1.20;;;;;;;25.74;36.60;101668.00;4991842;28;20018;-75
2023/06/26 10:48:20;;;;;;;3.55;0.90;;;;;;;25.81;35.47;101670.75;4992228;28;20032;-81
2023/06/26 10:50:49;;;;;;;3.10;0.90;;;;;;;26.02;35.81;101678.81;4990237;28;20121;-74
2023/06/26 10:53:19;;;;;;;2.72;0.93;;;;;;;26.23;36.27;101667.16;4992009;28;20050;-79
2023/06/26 10:55:51;;;;;;;3.97;1.00;;;;;;;26.44;36.14;101671.69;4977007;28;20055;-79
2023/06/26 10:58:43;;;;;;;5.43;1.30;;;;;;;26.63;36.17;101660.19;4981919;28;20550;-79
2023/06/26 11:01:13;;;;;;;6.72;1.15;;;;;;;26.47;36.18;101668.59;4976867;28;20030;-79
2023/06/26 11:03:49;;;;;;;3.63;1.20;;;;;;;26.16;35.05;101686.00;4962539;28;20099;-79
2023/06/26 11:06:18;;;;;;;4.20;1.13;;;;;;;26.01;36.59;101690.63;4977752;28;20117;-78
2023/06/26 11:08:54;;;;;;;4.30;1.00;;;;;;;25.99;36.25;101681.06;4976805;28;20112;-72
2023/06/26 11:11:21;;;;;;;3.58;1.13;;;;;;;26.09;36.73;101684.28;4975411;28;20031;-78
2023/06/26 11:13:48;;;;;;;3.88;1.10;;;;;;;26.06;34.33;101685.50;4981557;28;20031;-79
2023/06/26 11:16:14;;;;;;;2.28;0.90;;;;;;;26.07;34.54;101687.16;4981329;28;20026;-80
2023/06/26 11:18:40;;;;;;;2.63;1.00;;;;;;;26.05;34.16;101693.78;4973309;28;20487;-79
2023/06/26 11:21:11;;;;;;;3.92;1.13;;;;;;;25.95;35.29;101688.69;4988738;28;20471;-80
2023/06/26 11:23:37;;;;;;;2.95;1.35;;;;;;;26.11;35.27;101695.69;4977558;28;20022;-78